Terminal Aerodrome Forecast
Issued by NWS

Home | Current Version | Previous Version | Text Only | Print | Product List | Glossary On
Versions: 1 2 3 4 5 6 7 8 9 10 11 12 13 14 15 16 17 18
000
FTUS43 KILX 182332
TAFBMI
TAF
KBMI 182332Z 1900/1924 23008KT P6SM FEW050 SCT250
     FM190200 22006KT P6SM VCTS SCT050CB BKN200
     FM190600 VRB03KT P6SM SCT050 BKN250
     FM190900 VRB03KT 4SM BR SCT100
     FM191300 VRB05KT P6SM SCT150=

USA.gov is the U.S. government's official web portal to all federal, state and local government web resources and services.